»·PEaware :: N5939V KTOA-KBUR

N5939V :: KTOA-KBUR

FLIGHT INFORMATION

Flight Status: Arrived
Operator: Privately registered:
United States
More flights under this callsign
Pilot: Anonymous 30260 (30260)
Aircraft: SOCATA TBM-900
(TBM9)
More flights by this aircraft type
Origin: KTOA Zamperini
United States
Destination: KBUR Bob Hope-Burbank
United States
More flights between these airports :: More routes between these airports
Route: +LAX170 LIMBO V64 SMO125 SMO SM311R SILEX
File this flight plan on PilotEdge
Remarks: SCTP1
Altitude:
(Current/Filed)
5,000ft
Speed:
(Current/Filed)
252kts
Departed: 13-Oct-20 06:09 PM
Arrived: 13-Oct-20 06:36 PM
Distance/Time
Traveled:
24nm/0:27
Distance/Time
To Go:
Arrived

Flight Plot

Page will automatically refresh every two minutes.

Flight plan parsing failed; only flown route is shown


Map Options




Map Legend


Flown Route
Filed Route
Departure Airport
Arrival Airport
Navaid (VOR, NDB)
Fix

Horizontal Profiles

Position Reports

Time Latitude Longitude Heading Altitude Ground
Speed
13-Oct-20 17:46 33.801773 -118.341637 38 104ft 0kts
13-Oct-20 17:47 33.801773 -118.341637 38 104ft 0kts
13-Oct-20 17:48 33.801773 -118.341637 38 104ft 0kts
13-Oct-20 17:49 33.801773 -118.341637 38 104ft 0kts
13-Oct-20 17:50 33.801773 -118.341637 38 104ft 0kts
13-Oct-20 17:51 33.801773 -118.341637 38 104ft 0kts
13-Oct-20 17:52 33.801773 -118.341637 38 104ft 0kts
13-Oct-20 17:53 33.801773 -118.341637 38 104ft 0kts
13-Oct-20 17:54 33.801773 -118.341637 38 104ft 0kts
13-Oct-20 17:55 33.801773 -118.341637 38 104ft 0kts
13-Oct-20 17:56 33.801773 -118.341637 38 104ft 0kts
13-Oct-20 17:57 33.801773 -118.341637 38 104ft 0kts
13-Oct-20 17:58 33.801773 -118.341637 38 104ft 0kts
13-Oct-20 17:59 33.801773 -118.341637 38 104ft 0kts
13-Oct-20 18:00 33.801773 -118.341637 38 104ft 0kts
13-Oct-20 18:01 33.801773 -118.341637 38 104ft 0kts
13-Oct-20 18:02 33.801773 -118.341637 38 104ft 0kts
13-Oct-20 18:03 33.801773 -118.341637 38 104ft 0kts
13-Oct-20 18:04 33.801773 -118.341637 38 104ft 0kts
13-Oct-20 18:05 33.801193 -118.339440 58 102ft 10kts
13-Oct-20 18:06 33.799352 -118.336542 128 104ft 12kts
13-Oct-20 18:07 33.798787 -118.333580 37 101ft 13kts
13-Oct-20 18:08 33.808915 -118.346208 309 413ft 121kts
13-Oct-20 18:09 33.832355 -118.381686 309 2324ft 148kts
13-Oct-20 18:10 33.863403 -118.423727 309 3024ft 194kts
13-Oct-20 18:11 33.910152 -118.437557 21 4284ft 178kts
13-Oct-20 18:12 33.883882 -118.418555 191 4976ft 193kts
13-Oct-20 18:13 33.827667 -118.434609 195 5014ft 218kts
13-Oct-20 18:14 33.765307 -118.449484 192 5086ft 218kts
13-Oct-20 18:15 33.765834 -118.486385 29 4919ft 231kts
13-Oct-20 18:16 33.808284 -118.445027 27 4880ft 233kts
13-Oct-20 18:17 33.808284 -118.445027 27 4880ft 233kts
13-Oct-20 18:18 33.808284 -118.445027 27 4880ft 233kts
13-Oct-20 18:19 33.814616 -118.440259 35 4886ft 234kts
13-Oct-20 18:20 33.808955 -118.371238 123 5055ft 227kts
13-Oct-20 18:21 33.776307 -118.304238 105 4964ft 235kts
13-Oct-20 18:22 33.774601 -118.226974 85 5085ft 232kts
13-Oct-20 18:23 33.817825 -118.220188 289 4980ft 225kts
13-Oct-20 18:24 33.841411 -118.288353 317 4972ft 224kts
13-Oct-20 18:25 33.889655 -118.335353 318 4951ft 219kts
13-Oct-20 18:26 33.935347 -118.380825 316 4987ft 210kts
13-Oct-20 18:27 33.980047 -118.426420 319 5026ft 209kts
13-Oct-20 18:28 34.026838 -118.469541 320 4951ft 213kts
13-Oct-20 18:29 34.075765 -118.509774 329 4916ft 214kts
13-Oct-20 18:30 34.133036 -118.488786 29 4076ft 221kts
13-Oct-20 18:31 34.176803 -118.441472 64 3459ft 217kts
13-Oct-20 18:32 34.216079 -118.400513 1 2561ft 172kts
13-Oct-20 18:33 34.234546 -118.372939 128 1859ft 87kts
13-Oct-20 18:34 34.214731 -118.361099 168 900ft 83kts
13-Oct-20 18:35 34.202922 -118.358253 245 729ft 8kts
13-Oct-20 18:36 34.202794 -118.358845 258 730ft 4kts
13-Oct-20 18:37 34.201382 -118.359937 139 727ft 0kts

Navigation Log

Ident Type
Flight plan parsing failed, navigation log unavailable